sensor_id;sensor_type;location;lat;lon;timestamp;P1;durP1;ratioP1;P2;durP2;ratioP2
568;SDS011;269;48.884;9.192;2023-02-15T00:01:32;27.80;;;22.38;;
568;SDS011;269;48.884;9.192;2023-02-15T00:04:00;29.30;;;23.25;;
568;SDS011;269;48.884;9.192;2023-02-15T00:06:28;27.00;;;22.25;;
568;SDS011;269;48.884;9.192;2023-02-15T00:08:56;28.63;;;23.60;;
568;SDS011;269;48.884;9.192;2023-02-15T00:11:23;29.17;;;23.92;;
568;SDS011;269;48.884;9.192;2023-02-15T00:14:18;30.33;;;24.40;;
568;SDS011;269;48.884;9.192;2023-02-15T00:16:47;29.38;;;24.05;;
568;SDS011;269;48.884;9.192;2023-02-15T00:19:16;30.63;;;24.58;;
568;SDS011;269;48.884;9.192;2023-02-15T00:21:45;33.90;;;27.80;;
568;SDS011;269;48.884;9.192;2023-02-15T00:24:13;31.27;;;25.95;;
568;SDS011;269;48.884;9.192;2023-02-15T00:26:43;30.55;;;25.98;;
568;SDS011;269;48.884;9.192;2023-02-15T00:29:11;32.00;;;25.15;;
568;SDS011;269;48.884;9.192;2023-02-15T00:31:40;35.35;;;26.17;;
568;SDS011;269;48.884;9.192;2023-02-15T00:34:11;31.58;;;26.13;;
568;SDS011;269;48.884;9.192;2023-02-15T00:36:40;31.73;;;24.92;;
568;SDS011;269;48.884;9.192;2023-02-15T00:39:08;32.20;;;24.67;;
568;SDS011;269;48.884;9.192;2023-02-15T00:41:35;29.83;;;24.90;;
568;SDS011;269;48.884;9.192;2023-02-15T00:44:03;31.08;;;24.10;;
568;SDS011;269;48.884;9.192;2023-02-15T00:46:30;29.42;;;24.67;;
568;SDS011;269;48.884;9.192;2023-02-15T00:48:59;27.83;;;23.55;;
568;SDS011;269;48.884;9.192;2023-02-15T00:51:26;28.77;;;23.40;;
568;SDS011;269;48.884;9.192;2023-02-15T00:53:54;28.85;;;23.65;;
568;SDS011;269;48.884;9.192;2023-02-15T00:56:21;29.35;;;23.38;;
568;SDS011;269;48.884;9.192;2023-02-15T00:58:49;27.65;;;22.80;;
568;SDS011;269;48.884;9.192;2023-02-15T01:01:16;25.65;;;22.08;;
568;SDS011;269;48.884;9.192;2023-02-15T01:03:45;28.75;;;22.60;;
568;SDS011;269;48.884;9.192;2023-02-15T01:06:14;29.42;;;22.58;;
568;SDS011;269;48.884;9.192;2023-02-15T01:08:42;27.50;;;22.40;;
568;SDS011;269;48.884;9.192;2023-02-15T01:11:10;26.63;;;23.30;;
568;SDS011;269;48.884;9.192;2023-02-15T01:13:39;26.23;;;22.08;;
568;SDS011;269;48.884;9.192;2023-02-15T01:16:07;28.42;;;22.67;;
568;SDS011;269;48.884;9.192;2023-02-15T01:18:34;26.90;;;21.13;;
568;SDS011;269;48.884;9.192;2023-02-15T01:21:08;24.50;;;20.33;;
568;SDS011;269;48.884;9.192;2023-02-15T01:23:37;27.52;;;21.30;;
568;SDS011;269;48.884;9.192;2023-02-15T01:26:04;24.92;;;21.00;;
568;SDS011;269;48.884;9.192;2023-02-15T01:28:31;27.55;;;20.77;;
568;SDS011;269;48.884;9.192;2023-02-15T01:30:58;25.35;;;22.13;;
568;SDS011;269;48.884;9.192;2023-02-15T01:33:25;25.65;;;20.85;;
568;SDS011;269;48.884;9.192;2023-02-15T01:35:55;22.98;;;20.48;;
568;SDS011;269;48.884;9.192;2023-02-15T01:38:23;24.00;;;20.73;;
568;SDS011;269;48.884;9.192;2023-02-15T01:40:52;27.48;;;21.15;;
568;SDS011;269;48.884;9.192;2023-02-15T01:43:40;24.10;;;19.60;;
568;SDS011;269;48.884;9.192;2023-02-15T01:46:08;27.60;;;21.05;;
568;SDS011;269;48.884;9.192;2023-02-15T01:48:37;29.23;;;22.50;;
568;SDS011;269;48.884;9.192;2023-02-15T01:51:10;24.70;;;20.88;;
568;SDS011;269;48.884;9.192;2023-02-15T01:53:38;25.20;;;20.40;;
568;SDS011;269;48.884;9.192;2023-02-15T01:56:11;28.33;;;22.65;;
568;SDS011;269;48.884;9.192;2023-02-15T01:58:41;26.38;;;21.45;;
568;SDS011;269;48.884;9.192;2023-02-15T02:01:09;28.10;;;22.33;;
568;SDS011;269;48.884;9.192;2023-02-15T02:03:38;26.85;;;22.17;;
568;SDS011;269;48.884;9.192;2023-02-15T02:06:11;27.55;;;21.42;;
568;SDS011;269;48.884;9.192;2023-02-15T02:08:38;25.10;;;20.65;;
568;SDS011;269;48.884;9.192;2023-02-15T02:11:10;25.02;;;21.30;;
568;SDS011;269;48.884;9.192;2023-02-15T02:13:38;23.52;;;20.80;;
568;SDS011;269;48.884;9.192;2023-02-15T02:16:07;23.30;;;19.83;;
568;SDS011;269;48.884;9.192;2023-02-15T02:18:41;22.35;;;19.13;;
568;SDS011;269;48.884;9.192;2023-02-15T02:24:39;22.80;;;18.92;;
568;SDS011;269;48.884;9.192;2023-02-15T02:27:30;23.85;;;19.60;;
568;SDS011;269;48.884;9.192;2023-02-15T02:36:11;22.48;;;19.38;;
568;SDS011;269;48.884;9.192;2023-02-15T02:38:52;21.75;;;18.83;;
568;SDS011;269;48.884;9.192;2023-02-15T02:41:30;22.05;;;19.05;;
568;SDS011;269;48.884;9.192;2023-02-15T02:44:08;20.70;;;17.50;;
568;SDS011;269;48.884;9.192;2023-02-15T02:46:43;20.85;;;18.48;;
568;SDS011;269;48.884;9.192;2023-02-15T02:49:16;19.65;;;17.55;;
568;SDS011;269;48.884;9.192;2023-02-15T02:51:45;21.05;;;17.50;;
568;SDS011;269;48.884;9.192;2023-02-15T02:54:12;18.38;;;16.40;;
568;SDS011;269;48.884;9.192;2023-02-15T02:56:40;22.27;;;18.35;;
568;SDS011;269;48.884;9.192;2023-02-15T02:59:11;20.17;;;17.45;;
568;SDS011;269;48.884;9.192;2023-02-15T03:01:43;20.73;;;17.20;;
568;SDS011;269;48.884;9.192;2023-02-15T03:04:14;20.50;;;17.00;;
568;SDS011;269;48.884;9.192;2023-02-15T03:06:46;19.60;;;16.65;;
568;SDS011;269;48.884;9.192;2023-02-15T03:09:18;21.55;;;18.05;;
568;SDS011;269;48.884;9.192;2023-02-15T03:11:50;21.73;;;17.65;;
568;SDS011;269;48.884;9.192;2023-02-15T03:14:18;21.98;;;17.55;;
568;SDS011;269;48.884;9.192;2023-02-15T03:16:46;22.92;;;17.50;;
568;SDS011;269;48.884;9.192;2023-02-15T03:19:17;24.75;;;18.45;;
568;SDS011;269;48.884;9.192;2023-02-15T03:21:49;18.05;;;16.15;;
568;SDS011;269;48.884;9.192;2023-02-15T03:24:30;21.63;;;18.02;;
568;SDS011;269;48.884;9.192;2023-02-15T03:27:02;19.02;;;16.65;;
568;SDS011;269;48.884;9.192;2023-02-15T03:29:31;22.33;;;16.50;;
568;SDS011;269;48.884;9.192;2023-02-15T03:32:03;28.13;;;19.00;;
568;SDS011;269;48.884;9.192;2023-02-15T03:34:36;23.25;;;18.38;;
568;SDS011;269;48.884;9.192;2023-02-15T03:37:05;25.15;;;20.10;;
568;SDS011;269;48.884;9.192;2023-02-15T03:39:37;21.88;;;18.05;;
568;SDS011;269;48.884;9.192;2023-02-15T03:42:10;23.02;;;18.90;;
568;SDS011;269;48.884;9.192;2023-02-15T03:44:46;22.40;;;17.73;;
568;SDS011;269;48.884;9.192;2023-02-15T03:47:18;22.25;;;18.52;;
568;SDS011;269;48.884;9.192;2023-02-15T03:49:48;22.52;;;18.42;;
568;SDS011;269;48.884;9.192;2023-02-15T03:52:21;23.00;;;19.20;;
568;SDS011;269;48.884;9.192;2023-02-15T03:54:51;18.92;;;16.40;;
568;SDS011;269;48.884;9.192;2023-02-15T03:57:21;20.40;;;16.65;;
568;SDS011;269;48.884;9.192;2023-02-15T04:00:09;19.63;;;16.33;;
568;SDS011;269;48.884;9.192;2023-02-15T04:03:02;21.35;;;16.98;;
568;SDS011;269;48.884;9.192;2023-02-15T04:05:35;23.67;;;17.67;;
568;SDS011;269;48.884;9.192;2023-02-15T04:08:04;22.67;;;18.63;;
568;SDS011;269;48.884;9.192;2023-02-15T04:10:31;20.80;;;18.38;;
568;SDS011;269;48.884;9.192;2023-02-15T04:13:15;17.85;;;15.75;;
568;SDS011;269;48.884;9.192;2023-02-15T04:15:42;21.63;;;17.95;;
568;SDS011;269;48.884;9.192;2023-02-15T04:18:27;20.58;;;17.25;;
568;SDS011;269;48.884;9.192;2023-02-15T04:21:11;24.23;;;17.98;;
568;SDS011;269;48.884;9.192;2023-02-15T04:23:58;22.40;;;17.80;;
568;SDS011;269;48.884;9.192;2023-02-15T04:26:42;21.63;;;17.38;;
568;SDS011;269;48.884;9.192;2023-02-15T04:29:09;21.38;;;18.35;;
568;SDS011;269;48.884;9.192;2023-02-15T04:31:36;22.55;;;18.27;;
568;SDS011;269;48.884;9.192;2023-02-15T04:34:03;22.83;;;19.02;;
568;SDS011;269;48.884;9.192;2023-02-15T04:36:30;21.83;;;17.73;;
568;SDS011;269;48.884;9.192;2023-02-15T04:38:59;19.83;;;17.27;;
568;SDS011;269;48.884;9.192;2023-02-15T04:41:26;22.63;;;18.10;;
568;SDS011;269;48.884;9.192;2023-02-15T04:43:53;20.30;;;16.40;;
568;SDS011;269;48.884;9.192;2023-02-15T04:46:20;18.80;;;15.82;;
568;SDS011;269;48.884;9.192;2023-02-15T04:48:46;18.98;;;16.02;;
568;SDS011;269;48.884;9.192;2023-02-15T04:51:14;23.50;;;18.50;;
568;SDS011;269;48.884;9.192;2023-02-15T04:53:41;22.50;;;18.00;;
568;SDS011;269;48.884;9.192;2023-02-15T04:56:09;28.67;;;19.02;;
568;SDS011;269;48.884;9.192;2023-02-15T04:58:36;22.33;;;18.02;;
568;SDS011;269;48.884;9.192;2023-02-15T05:01:06;24.88;;;19.10;;
568;SDS011;269;48.884;9.192;2023-02-15T05:03:33;22.80;;;17.20;;
568;SDS011;269;48.884;9.192;2023-02-15T05:06:00;22.08;;;17.73;;
568;SDS011;269;48.884;9.192;2023-02-15T05:08:27;26.85;;;20.67;;
568;SDS011;269;48.884;9.192;2023-02-15T05:10:54;23.50;;;19.10;;
568;SDS011;269;48.884;9.192;2023-02-15T05:13:23;21.05;;;17.33;;
568;SDS011;269;48.884;9.192;2023-02-15T05:15:50;25.58;;;20.63;;
568;SDS011;269;48.884;9.192;2023-02-15T05:18:19;22.42;;;17.85;;
568;SDS011;269;48.884;9.192;2023-02-15T05:20:47;20.88;;;15.93;;
568;SDS011;269;48.884;9.192;2023-02-15T05:23:14;20.23;;;16.08;;
568;SDS011;269;48.884;9.192;2023-02-15T05:25:45;19.67;;;16.38;;
568;SDS011;269;48.884;9.192;2023-02-15T05:28:32;19.17;;;15.70;;
568;SDS011;269;48.884;9.192;2023-02-15T05:31:02;20.05;;;16.20;;
568;SDS011;269;48.884;9.192;2023-02-15T05:33:30;30.77;;;17.05;;
568;SDS011;269;48.884;9.192;2023-02-15T05:35:58;24.10;;;16.55;;
568;SDS011;269;48.884;9.192;2023-02-15T05:38:25;18.25;;;16.35;;
568;SDS011;269;48.884;9.192;2023-02-15T05:40:52;19.63;;;16.58;;
568;SDS011;269;48.884;9.192;2023-02-15T05:43:20;17.67;;;15.30;;
568;SDS011;269;48.884;9.192;2023-02-15T05:45:50;25.58;;;14.43;;
568;SDS011;269;48.884;9.192;2023-02-15T05:48:19;31.88;;;19.05;;
568;SDS011;269;48.884;9.192;2023-02-15T05:50:55;24.27;;;19.30;;
568;SDS011;269;48.884;9.192;2023-02-15T05:53:24;33.17;;;20.27;;
568;SDS011;269;48.884;9.192;2023-02-15T05:55:52;24.48;;;19.17;;
568;SDS011;269;48.884;9.192;2023-02-15T05:58:25;25.45;;;19.30;;
568;SDS011;269;48.884;9.192;2023-02-15T06:00:54;23.52;;;18.70;;
568;SDS011;269;48.884;9.192;2023-02-15T06:03:21;26.50;;;18.58;;
568;SDS011;269;48.884;9.192;2023-02-15T06:05:51;29.88;;;18.05;;
568;SDS011;269;48.884;9.192;2023-02-15T06:08:19;21.67;;;17.13;;
568;SDS011;269;48.884;9.192;2023-02-15T06:10:47;24.67;;;18.23;;
568;SDS011;269;48.884;9.192;2023-02-15T06:13:15;50.40;;;18.58;;
568;SDS011;269;48.884;9.192;2023-02-15T06:15:42;31.30;;;18.85;;
568;SDS011;269;48.884;9.192;2023-02-15T06:18:11;23.70;;;20.45;;
568;SDS011;269;48.884;9.192;2023-02-15T06:20:39;24.48;;;19.38;;
568;SDS011;269;48.884;9.192;2023-02-15T06:23:07;23.63;;;20.88;;
568;SDS011;269;48.884;9.192;2023-02-15T06:25:34;22.58;;;19.30;;
568;SDS011;269;48.884;9.192;2023-02-15T06:28:02;22.70;;;18.98;;
568;SDS011;269;48.884;9.192;2023-02-15T06:30:30;25.05;;;19.15;;
568;SDS011;269;48.884;9.192;2023-02-15T06:32:58;22.75;;;18.85;;
568;SDS011;269;48.884;9.192;2023-02-15T06:35:27;20.85;;;18.45;;
568;SDS011;269;48.884;9.192;2023-02-15T06:37:55;24.08;;;17.88;;
568;SDS011;269;48.884;9.192;2023-02-15T06:40:22;20.58;;;16.80;;
568;SDS011;269;48.884;9.192;2023-02-15T06:42:50;24.60;;;18.80;;
568;SDS011;269;48.884;9.192;2023-02-15T06:45:18;24.85;;;19.80;;
568;SDS011;269;48.884;9.192;2023-02-15T06:47:45;27.25;;;20.60;;
568;SDS011;269;48.884;9.192;2023-02-15T06:50:12;23.58;;;19.33;;
568;SDS011;269;48.884;9.192;2023-02-15T06:52:41;31.77;;;18.73;;
568;SDS011;269;48.884;9.192;2023-02-15T06:55:08;21.20;;;18.17;;
568;SDS011;269;48.884;9.192;2023-02-15T06:57:35;21.50;;;17.17;;
568;SDS011;269;48.884;9.192;2023-02-15T07:00:02;25.38;;;18.85;;
568;SDS011;269;48.884;9.192;2023-02-15T07:02:31;20.17;;;16.60;;
568;SDS011;269;48.884;9.192;2023-02-15T07:04:58;20.05;;;17.08;;
568;SDS011;269;48.884;9.192;2023-02-15T07:07:25;23.27;;;19.05;;
568;SDS011;269;48.884;9.192;2023-02-15T07:09:54;22.75;;;17.38;;
568;SDS011;269;48.884;9.192;2023-02-15T07:12:21;19.30;;;17.20;;
568;SDS011;269;48.884;9.192;2023-02-15T07:15:06;17.98;;;16.08;;
568;SDS011;269;48.884;9.192;2023-02-15T07:17:34;21.65;;;17.27;;
568;SDS011;269;48.884;9.192;2023-02-15T07:20:02;20.02;;;17.27;;
568;SDS011;269;48.884;9.192;2023-02-15T07:22:29;18.83;;;16.23;;
568;SDS011;269;48.884;9.192;2023-02-15T07:24:58;23.70;;;17.08;;
568;SDS011;269;48.884;9.192;2023-02-15T07:27:25;21.13;;;16.40;;
568;SDS011;269;48.884;9.192;2023-02-15T07:29:52;23.02;;;18.50;;
568;SDS011;269;48.884;9.192;2023-02-15T07:32:19;18.38;;;15.80;;
568;SDS011;269;48.884;9.192;2023-02-15T07:34:46;22.30;;;16.40;;
568;SDS011;269;48.884;9.192;2023-02-15T07:37:13;19.95;;;15.82;;
568;SDS011;269;48.884;9.192;2023-02-15T07:39:40;21.20;;;16.63;;
568;SDS011;269;48.884;9.192;2023-02-15T07:42:08;16.35;;;14.07;;
568;SDS011;269;48.884;9.192;2023-02-15T07:44:35;18.25;;;14.35;;
568;SDS011;269;48.884;9.192;2023-02-15T07:47:02;19.73;;;17.52;;
568;SDS011;269;48.884;9.192;2023-02-15T07:49:29;22.05;;;15.63;;
568;SDS011;269;48.884;9.192;2023-02-15T07:51:56;18.70;;;15.23;;
568;SDS011;269;48.884;9.192;2023-02-15T07:54:23;18.65;;;15.13;;
568;SDS011;269;48.884;9.192;2023-02-15T07:56:51;16.67;;;14.38;;
568;SDS011;269;48.884;9.192;2023-02-15T07:59:19;16.77;;;14.88;;
568;SDS011;269;48.884;9.192;2023-02-15T08:01:46;18.90;;;16.00;;
568;SDS011;269;48.884;9.192;2023-02-15T08:04:13;30.85;;;23.77;;
568;SDS011;269;48.884;9.192;2023-02-15T08:06:40;23.05;;;17.05;;
568;SDS011;269;48.884;9.192;2023-02-15T08:09:07;16.65;;;14.95;;
568;SDS011;269;48.884;9.192;2023-02-15T08:11:36;18.58;;;15.77;;
568;SDS011;269;48.884;9.192;2023-02-15T08:14:05;19.15;;;15.65;;
568;SDS011;269;48.884;9.192;2023-02-15T08:16:36;19.40;;;15.55;;
568;SDS011;269;48.884;9.192;2023-02-15T08:19:05;17.58;;;15.50;;
568;SDS011;269;48.884;9.192;2023-02-15T08:21:33;17.05;;;15.25;;
568;SDS011;269;48.884;9.192;2023-02-15T08:24:01;17.45;;;15.65;;
568;SDS011;269;48.884;9.192;2023-02-15T08:26:29;17.55;;;15.75;;
568;SDS011;269;48.884;9.192;2023-02-15T08:28:57;17.17;;;15.35;;
568;SDS011;269;48.884;9.192;2023-02-15T08:31:24;17.17;;;15.38;;
568;SDS011;269;48.884;9.192;2023-02-15T08:33:54;17.83;;;15.93;;
568;SDS011;269;48.884;9.192;2023-02-15T08:36:24;17.45;;;15.65;;
568;SDS011;269;48.884;9.192;2023-02-15T08:38:52;17.30;;;15.50;;
568;SDS011;269;48.884;9.192;2023-02-15T08:41:20;15.10;;;13.60;;
568;SDS011;269;48.884;9.192;2023-02-15T08:43:49;14.52;;;12.98;;
568;SDS011;269;48.884;9.192;2023-02-15T08:46:18;15.88;;;14.18;;
568;SDS011;269;48.884;9.192;2023-02-15T08:48:46;15.93;;;14.23;;
568;SDS011;269;48.884;9.192;2023-02-15T08:51:16;16.20;;;14.60;;
568;SDS011;269;48.884;9.192;2023-02-15T08:53:45;18.38;;;14.95;;
568;SDS011;269;48.884;9.192;2023-02-15T08:56:14;16.42;;;14.68;;
568;SDS011;269;48.884;9.192;2023-02-15T08:58:42;17.55;;;15.80;;
568;SDS011;269;48.884;9.192;2023-02-15T09:01:10;21.05;;;18.00;;
568;SDS011;269;48.884;9.192;2023-02-15T09:03:38;17.42;;;15.73;;
568;SDS011;269;48.884;9.192;2023-02-15T09:06:05;17.00;;;15.27;;
568;SDS011;269;48.884;9.192;2023-02-15T09:08:34;17.30;;;15.15;;
568;SDS011;269;48.884;9.192;2023-02-15T09:11:05;19.17;;;17.00;;
568;SDS011;269;48.884;9.192;2023-02-15T09:13:34;16.88;;;14.85;;
568;SDS011;269;48.884;9.192;2023-02-15T09:16:01;19.58;;;16.60;;
568;SDS011;269;48.884;9.192;2023-02-15T09:18:29;19.42;;;16.98;;
568;SDS011;269;48.884;9.192;2023-02-15T09:21:03;17.60;;;15.68;;
568;SDS011;269;48.884;9.192;2023-02-15T09:23:31;18.00;;;16.10;;
568;SDS011;269;48.884;9.192;2023-02-15T09:26:06;22.27;;;17.48;;
568;SDS011;269;48.884;9.192;2023-02-15T09:28:35;21.80;;;17.85;;
568;SDS011;269;48.884;9.192;2023-02-15T09:31:09;22.02;;;18.20;;
568;SDS011;269;48.884;9.192;2023-02-15T09:33:37;23.70;;;18.08;;
568;SDS011;269;48.884;9.192;2023-02-15T09:36:12;23.38;;;19.60;;
568;SDS011;269;48.884;9.192;2023-02-15T09:38:42;22.60;;;18.92;;
568;SDS011;269;48.884;9.192;2023-02-15T09:41:14;23.25;;;19.40;;
568;SDS011;269;48.884;9.192;2023-02-15T09:43:53;22.33;;;19.10;;
568;SDS011;269;48.884;9.192;2023-02-15T09:46:33;26.48;;;18.98;;
568;SDS011;269;48.884;9.192;2023-02-15T09:49:09;30.42;;;18.80;;
568;SDS011;269;48.884;9.192;2023-02-15T09:51:46;21.88;;;18.83;;
568;SDS011;269;48.884;9.192;2023-02-15T09:54:32;22.50;;;19.38;;
568;SDS011;269;48.884;9.192;2023-02-15T09:57:08;20.67;;;17.90;;
568;SDS011;269;48.884;9.192;2023-02-15T09:59:44;20.40;;;18.20;;
568;SDS011;269;48.884;9.192;2023-02-15T10:02:23;21.75;;;19.08;;
568;SDS011;269;48.884;9.192;2023-02-15T10:05:07;23.40;;;18.92;;
568;SDS011;269;48.884;9.192;2023-02-15T10:10:35;20.35;;;18.25;;
568;SDS011;269;48.884;9.192;2023-02-15T10:13:14;22.83;;;20.48;;
568;SDS011;269;48.884;9.192;2023-02-15T10:15:52;22.70;;;19.15;;
568;SDS011;269;48.884;9.192;2023-02-15T10:18:36;20.48;;;18.42;;
568;SDS011;269;48.884;9.192;2023-02-15T10:21:13;19.95;;;17.90;;
568;SDS011;269;48.884;9.192;2023-02-15T10:23:58;21.05;;;18.85;;
568;SDS011;269;48.884;9.192;2023-02-15T10:26:37;18.75;;;16.83;;
568;SDS011;269;48.884;9.192;2023-02-15T10:29:12;19.85;;;17.85;;
568;SDS011;269;48.884;9.192;2023-02-15T10:31:50;18.25;;;15.95;;
568;SDS011;269;48.884;9.192;2023-02-15T10:34:21;18.38;;;16.40;;
568;SDS011;269;48.884;9.192;2023-02-15T10:37:01;17.73;;;16.02;;
568;SDS011;269;48.884;9.192;2023-02-15T10:39:41;19.63;;;17.67;;
568;SDS011;269;48.884;9.192;2023-02-15T10:42:20;19.25;;;17.33;;
568;SDS011;269;48.884;9.192;2023-02-15T10:45:01;17.33;;;15.60;;
568;SDS011;269;48.884;9.192;2023-02-15T10:50:26;18.43;;;15.47;;
568;SDS011;269;48.884;9.192;2023-02-15T10:53:13;16.70;;;15.20;;
568;SDS011;269;48.884;9.192;2023-02-15T10:56:03;17.13;;;15.73;;
568;SDS011;269;48.884;9.192;2023-02-15T10:58:41;24.03;;;16.47;;
568;SDS011;269;48.884;9.192;2023-02-15T11:01:20;17.13;;;15.33;;
568;SDS011;269;48.884;9.192;2023-02-15T11:03:57;17.43;;;15.73;;
568;SDS011;269;48.884;9.192;2023-02-15T11:06:50;18.63;;;16.93;;
568;SDS011;269;48.884;9.192;2023-02-15T11:09:21;17.47;;;15.97;;
568;SDS011;269;48.884;9.192;2023-02-15T11:11:51;18.13;;;16.63;;
568;SDS011;269;48.884;9.192;2023-02-15T11:14:23;18.17;;;16.40;;
568;SDS011;269;48.884;9.192;2023-02-15T11:17:11;20.07;;;18.27;;
568;SDS011;269;48.884;9.192;2023-02-15T11:19:43;21.00;;;19.20;;
568;SDS011;269;48.884;9.192;2023-02-15T11:22:19;20.70;;;18.60;;
568;SDS011;269;48.884;9.192;2023-02-15T11:24:46;21.77;;;19.60;;
568;SDS011;269;48.884;9.192;2023-02-15T11:27:17;19.40;;;17.60;;
568;SDS011;269;48.884;9.192;2023-02-15T11:29:52;21.67;;;19.77;;
568;SDS011;269;48.884;9.192;2023-02-15T11:32:23;20.60;;;18.80;;
568;SDS011;269;48.884;9.192;2023-02-15T11:34:55;22.67;;;20.57;;
568;SDS011;269;48.884;9.192;2023-02-15T11:37:27;20.37;;;18.53;;
568;SDS011;269;48.884;9.192;2023-02-15T11:40:00;22.07;;;20.00;;
568;SDS011;269;48.884;9.192;2023-02-15T11:42:29;21.00;;;19.20;;
568;SDS011;269;48.884;9.192;2023-02-15T11:45:02;21.13;;;19.40;;
568;SDS011;269;48.884;9.192;2023-02-15T11:47:41;21.90;;;20.00;;
568;SDS011;269;48.884;9.192;2023-02-15T11:50:10;20.23;;;18.53;;
568;SDS011;269;48.884;9.192;2023-02-15T11:52:37;22.30;;;20.20;;
568;SDS011;269;48.884;9.192;2023-02-15T11:55:09;20.00;;;18.23;;
568;SDS011;269;48.884;9.192;2023-02-15T11:57:39;20.57;;;18.77;;
568;SDS011;269;48.884;9.192;2023-02-15T12:00:12;21.10;;;19.10;;
568;SDS011;269;48.884;9.192;2023-02-15T12:02:48;20.80;;;18.90;;
568;SDS011;269;48.884;9.192;2023-02-15T12:05:20;21.53;;;19.50;;
568;SDS011;269;48.884;9.192;2023-02-15T12:07:50;19.73;;;18.03;;
568;SDS011;269;48.884;9.192;2023-02-15T12:10:22;22.40;;;20.40;;
568;SDS011;269;48.884;9.192;2023-02-15T12:13:07;21.13;;;19.23;;
568;SDS011;269;48.884;9.192;2023-02-15T12:15:39;22.07;;;20.07;;
568;SDS011;269;48.884;9.192;2023-02-15T12:18:15;20.13;;;18.33;;
568;SDS011;269;48.884;9.192;2023-02-15T12:20:46;21.87;;;19.87;;
568;SDS011;269;48.884;9.192;2023-02-15T12:23:15;21.80;;;19.80;;
568;SDS011;269;48.884;9.192;2023-02-15T12:25:43;20.60;;;18.80;;
568;SDS011;269;48.884;9.192;2023-02-15T12:28:22;19.60;;;17.80;;
568;SDS011;269;48.884;9.192;2023-02-15T12:30:53;20.00;;;18.27;;
568;SDS011;269;48.884;9.192;2023-02-15T12:33:24;20.63;;;18.93;;
568;SDS011;269;48.884;9.192;2023-02-15T12:35:55;21.17;;;19.37;;
568;SDS011;269;48.884;9.192;2023-02-15T12:38:26;21.07;;;19.27;;
568;SDS011;269;48.884;9.192;2023-02-15T12:40:58;22.13;;;20.30;;
568;SDS011;269;48.884;9.192;2023-02-15T12:43:27;21.10;;;19.20;;
568;SDS011;269;48.884;9.192;2023-02-15T12:51:45;21.47;;;19.37;;
568;SDS011;269;48.884;9.192;2023-02-15T12:54:17;20.40;;;18.60;;
568;SDS011;269;48.884;9.192;2023-02-15T12:56:52;20.83;;;19.13;;
568;SDS011;269;48.884;9.192;2023-02-15T12:59:19;21.50;;;19.53;;
568;SDS011;269;48.884;9.192;2023-02-15T13:01:47;19.60;;;17.90;;
568;SDS011;269;48.884;9.192;2023-02-15T13:04:18;19.97;;;18.30;;
568;SDS011;269;48.884;9.192;2023-02-15T13:06:51;20.20;;;18.50;;
568;SDS011;269;48.884;9.192;2023-02-15T13:09:20;21.60;;;19.53;;
568;SDS011;269;48.884;9.192;2023-02-15T13:11:53;20.27;;;18.47;;
568;SDS011;269;48.884;9.192;2023-02-15T13:14:21;20.67;;;18.87;;
568;SDS011;269;48.884;9.192;2023-02-15T13:16:55;19.90;;;18.17;;
568;SDS011;269;48.884;9.192;2023-02-15T13:19:31;19.13;;;17.50;;
568;SDS011;269;48.884;9.192;2023-02-15T13:22:02;19.67;;;17.87;;
568;SDS011;269;48.884;9.192;2023-02-15T13:24:33;21.17;;;19.27;;
568;SDS011;269;48.884;9.192;2023-02-15T13:27:05;20.57;;;18.80;;
568;SDS011;269;48.884;9.192;2023-02-15T13:29:37;18.43;;;16.93;;
568;SDS011;269;48.884;9.192;2023-02-15T13:32:07;19.07;;;17.50;;
568;SDS011;269;48.884;9.192;2023-02-15T13:34:43;19.67;;;18.17;;
568;SDS011;269;48.884;9.192;2023-02-15T13:37:11;20.03;;;18.23;;
568;SDS011;269;48.884;9.192;2023-02-15T13:39:45;17.90;;;16.40;;
568;SDS011;269;48.884;9.192;2023-02-15T13:42:18;17.90;;;16.43;;
568;SDS011;269;48.884;9.192;2023-02-15T13:44:53;17.77;;;16.37;;
568;SDS011;269;48.884;9.192;2023-02-15T13:47:35;19.73;;;17.77;;
568;SDS011;269;48.884;9.192;2023-02-15T13:50:29;17.93;;;16.43;;
568;SDS011;269;48.884;9.192;2023-02-15T13:53:15;16.03;;;14.63;;
568;SDS011;269;48.884;9.192;2023-02-15T13:55:54;16.20;;;14.90;;
568;SDS011;269;48.884;9.192;2023-02-15T13:58:32;16.93;;;15.53;;
568;SDS011;269;48.884;9.192;2023-02-15T14:01:23;17.83;;;16.23;;
568;SDS011;269;48.884;9.192;2023-02-15T14:04:04;18.10;;;16.50;;
568;SDS011;269;48.884;9.192;2023-02-15T14:06:54;18.10;;;16.50;;
568;SDS011;269;48.884;9.192;2023-02-15T14:09:38;19.53;;;17.60;;
568;SDS011;269;48.884;9.192;2023-02-15T14:12:17;18.13;;;16.43;;
568;SDS011;269;48.884;9.192;2023-02-15T14:17:55;18.40;;;16.70;;
568;SDS011;269;48.884;9.192;2023-02-15T14:20:33;17.53;;;16.03;;
568;SDS011;269;48.884;9.192;2023-02-15T14:23:14;18.07;;;16.57;;
568;SDS011;269;48.884;9.192;2023-02-15T14:25:55;17.73;;;16.13;;
568;SDS011;269;48.884;9.192;2023-02-15T14:28:27;18.40;;;16.80;;
568;SDS011;269;48.884;9.192;2023-02-15T14:31:00;19.50;;;17.70;;
568;SDS011;269;48.884;9.192;2023-02-15T14:33:32;18.10;;;16.47;;
568;SDS011;269;48.884;9.192;2023-02-15T14:36:04;18.10;;;16.40;;
568;SDS011;269;48.884;9.192;2023-02-15T14:38:39;18.93;;;17.23;;
568;SDS011;269;48.884;9.192;2023-02-15T14:41:21;18.60;;;16.87;;
568;SDS011;269;48.884;9.192;2023-02-15T14:43:56;18.80;;;17.00;;
568;SDS011;269;48.884;9.192;2023-02-15T14:46:34;18.90;;;17.10;;
568;SDS011;269;48.884;9.192;2023-02-15T14:49:06;17.90;;;16.20;;
568;SDS011;269;48.884;9.192;2023-02-15T14:51:53;19.03;;;17.13;;
568;SDS011;269;48.884;9.192;2023-02-15T14:57:26;18.43;;;16.57;;
568;SDS011;269;48.884;9.192;2023-02-15T14:59:58;18.92;;;17.13;;
568;SDS011;269;48.884;9.192;2023-02-15T15:02:40;18.27;;;16.47;;
568;SDS011;269;48.884;9.192;2023-02-15T15:05:14;19.15;;;17.40;;
568;SDS011;269;48.884;9.192;2023-02-15T15:07:46;19.25;;;17.35;;
568;SDS011;269;48.884;9.192;2023-02-15T15:22:33;19.98;;;18.08;;
568;SDS011;269;48.884;9.192;2023-02-15T15:25:02;19.00;;;17.20;;
568;SDS011;269;48.884;9.192;2023-02-15T15:27:46;20.80;;;18.80;;
568;SDS011;269;48.884;9.192;2023-02-15T15:33:17;19.65;;;17.55;;
568;SDS011;269;48.884;9.192;2023-02-15T15:36:21;21.50;;;16.73;;
568;SDS011;269;48.884;9.192;2023-02-15T15:39:05;20.23;;;18.03;;
568;SDS011;269;48.884;9.192;2023-02-15T15:41:48;19.97;;;18.03;;
568;SDS011;269;48.884;9.192;2023-02-15T15:47:26;18.70;;;17.00;;
568;SDS011;269;48.884;9.192;2023-02-15T15:50:04;19.40;;;17.40;;
568;SDS011;269;48.884;9.192;2023-02-15T15:52:38;19.37;;;17.47;;
568;SDS011;269;48.884;9.192;2023-02-15T15:55:14;20.80;;;18.70;;
568;SDS011;269;48.884;9.192;2023-02-15T15:57:44;20.77;;;18.80;;
568;SDS011;269;48.884;9.192;2023-02-15T16:00:25;20.83;;;18.70;;
568;SDS011;269;48.884;9.192;2023-02-15T16:03:00;20.83;;;18.85;;
568;SDS011;269;48.884;9.192;2023-02-15T16:05:34;20.20;;;18.30;;
568;SDS011;269;48.884;9.192;2023-02-15T16:08:02;21.73;;;19.73;;
568;SDS011;269;48.884;9.192;2023-02-15T16:10:29;26.63;;;23.90;;
568;SDS011;269;48.884;9.192;2023-02-15T16:12:59;23.30;;;20.90;;
568;SDS011;269;48.884;9.192;2023-02-15T16:15:29;21.88;;;19.35;;
568;SDS011;269;48.884;9.192;2023-02-15T16:18:00;22.33;;;20.23;;
568;SDS011;269;48.884;9.192;2023-02-15T16:20:29;22.35;;;20.33;;
568;SDS011;269;48.884;9.192;2023-02-15T16:23:03;24.17;;;21.70;;
568;SDS011;269;48.884;9.192;2023-02-15T16:25:57;24.70;;;22.30;;
568;SDS011;269;48.884;9.192;2023-02-15T16:28:33;22.55;;;20.35;;
568;SDS011;269;48.884;9.192;2023-02-15T16:31:11;24.33;;;21.80;;